sensor_id;sensor_type;location;lat;lon;timestamp;P1;durP1;ratioP1;P2;durP2;ratioP2
17943;SDS011;9097;47.028;15.444;2023-05-19T00:02:01;3.37;;;1.80;;
17943;SDS011;9097;47.028;15.444;2023-05-19T00:05:06;4.70;;;3.27;;
17943;SDS011;9097;47.028;15.444;2023-05-19T00:08:12;2.53;;;2.30;;
17943;SDS011;9097;47.028;15.444;2023-05-19T00:11:18;1.97;;;1.77;;
17943;SDS011;9097;47.028;15.444;2023-05-19T00:14:21;1.40;;;1.30;;
17943;SDS011;9097;47.028;15.444;2023-05-19T00:17:24;7.30;;;2.43;;
17943;SDS011;9097;47.028;15.444;2023-05-19T00:20:27;7.17;;;2.87;;
17943;SDS011;9097;47.028;15.444;2023-05-19T00:23:31;5.30;;;2.13;;
17943;SDS011;9097;47.028;15.444;2023-05-19T00:26:33;2.67;;;1.97;;
17943;SDS011;9097;47.028;15.444;2023-05-19T00:29:36;7.33;;;1.90;;
17943;SDS011;9097;47.028;15.444;2023-05-19T00:32:38;1.77;;;1.47;;
17943;SDS011;9097;47.028;15.444;2023-05-19T00:35:41;2.37;;;1.87;;
17943;SDS011;9097;47.028;15.444;2023-05-19T00:38:45;1.90;;;1.80;;
17943;SDS011;9097;47.028;15.444;2023-05-19T00:41:47;4.33;;;2.30;;
17943;SDS011;9097;47.028;15.444;2023-05-19T00:44:50;4.13;;;2.17;;
17943;SDS011;9097;47.028;15.444;2023-05-19T00:47:53;2.17;;;1.93;;
17943;SDS011;9097;47.028;15.444;2023-05-19T00:50:56;2.00;;;1.80;;
17943;SDS011;9097;47.028;15.444;2023-05-19T00:54:04;3.77;;;2.13;;
17943;SDS011;9097;47.028;15.444;2023-05-19T00:57:07;2.97;;;2.10;;
17943;SDS011;9097;47.028;15.444;2023-05-19T01:00:11;4.13;;;2.37;;
17943;SDS011;9097;47.028;15.444;2023-05-19T01:03:14;3.23;;;1.90;;
17943;SDS011;9097;47.028;15.444;2023-05-19T01:06:19;2.80;;;2.10;;
17943;SDS011;9097;47.028;15.444;2023-05-19T01:09:23;2.97;;;2.00;;
17943;SDS011;9097;47.028;15.444;2023-05-19T01:12:26;2.47;;;1.97;;
17943;SDS011;9097;47.028;15.444;2023-05-19T01:15:28;4.20;;;2.50;;
17943;SDS011;9097;47.028;15.444;2023-05-19T01:18:42;3.83;;;2.47;;
17943;SDS011;9097;47.028;15.444;2023-05-19T01:21:51;2.30;;;1.57;;
17943;SDS011;9097;47.028;15.444;2023-05-19T01:28:32;2.77;;;1.70;;
17943;SDS011;9097;47.028;15.444;2023-05-19T01:31:41;2.93;;;1.93;;
17943;SDS011;9097;47.028;15.444;2023-05-19T01:34:47;2.77;;;1.93;;
17943;SDS011;9097;47.028;15.444;2023-05-19T01:37:51;5.90;;;3.13;;
17943;SDS011;9097;47.028;15.444;2023-05-19T01:40:55;3.40;;;2.03;;
17943;SDS011;9097;47.028;15.444;2023-05-19T01:43:58;7.40;;;2.67;;
17943;SDS011;9097;47.028;15.444;2023-05-19T01:47:03;3.23;;;2.50;;
17943;SDS011;9097;47.028;15.444;2023-05-19T01:50:06;3.57;;;2.40;;
17943;SDS011;9097;47.028;15.444;2023-05-19T01:53:10;5.17;;;2.67;;
17943;SDS011;9097;47.028;15.444;2023-05-19T01:56:13;3.57;;;2.13;;
17943;SDS011;9097;47.028;15.444;2023-05-19T01:59:23;3.97;;;1.87;;
17943;SDS011;9097;47.028;15.444;2023-05-19T02:02:42;5.63;;;1.90;;
17943;SDS011;9097;47.028;15.444;2023-05-19T02:05:54;2.90;;;2.03;;
17943;SDS011;9097;47.028;15.444;2023-05-19T02:09:05;3.60;;;2.77;;
17943;SDS011;9097;47.028;15.444;2023-05-19T02:12:17;3.40;;;2.13;;
17943;SDS011;9097;47.028;15.444;2023-05-19T02:15:24;3.47;;;2.17;;
17943;SDS011;9097;47.028;15.444;2023-05-19T02:18:32;3.67;;;2.53;;
17943;SDS011;9097;47.028;15.444;2023-05-19T02:21:35;5.23;;;2.73;;
17943;SDS011;9097;47.028;15.444;2023-05-19T02:24:38;2.80;;;2.13;;
17943;SDS011;9097;47.028;15.444;2023-05-19T02:27:40;3.10;;;1.70;;
17943;SDS011;9097;47.028;15.444;2023-05-19T02:30:43;3.47;;;2.10;;
17943;SDS011;9097;47.028;15.444;2023-05-19T02:33:47;4.40;;;2.30;;
17943;SDS011;9097;47.028;15.444;2023-05-19T02:36:49;2.80;;;1.67;;
17943;SDS011;9097;47.028;15.444;2023-05-19T02:39:51;4.07;;;2.73;;
17943;SDS011;9097;47.028;15.444;2023-05-19T02:42:54;2.90;;;2.60;;
17943;SDS011;9097;47.028;15.444;2023-05-19T02:45:56;6.27;;;2.60;;
17943;SDS011;9097;47.028;15.444;2023-05-19T02:49:00;5.83;;;2.20;;
17943;SDS011;9097;47.028;15.444;2023-05-19T02:52:03;4.27;;;2.27;;
17943;SDS011;9097;47.028;15.444;2023-05-19T02:55:06;3.53;;;2.13;;
17943;SDS011;9097;47.028;15.444;2023-05-19T02:58:12;3.43;;;2.30;;
17943;SDS011;9097;47.028;15.444;2023-05-19T03:01:14;10.23;;;2.57;;
17943;SDS011;9097;47.028;15.444;2023-05-19T03:04:18;2.97;;;1.87;;
17943;SDS011;9097;47.028;15.444;2023-05-19T03:07:20;4.80;;;2.30;;
17943;SDS011;9097;47.028;15.444;2023-05-19T03:10:24;3.47;;;2.30;;
17943;SDS011;9097;47.028;15.444;2023-05-19T03:13:27;2.93;;;2.00;;
17943;SDS011;9097;47.028;15.444;2023-05-19T03:16:30;3.07;;;2.33;;
17943;SDS011;9097;47.028;15.444;2023-05-19T03:19:34;4.63;;;2.23;;
17943;SDS011;9097;47.028;15.444;2023-05-19T03:22:37;5.07;;;2.30;;
17943;SDS011;9097;47.028;15.444;2023-05-19T03:25:39;4.30;;;3.10;;
17943;SDS011;9097;47.028;15.444;2023-05-19T03:28:41;9.70;;;3.23;;
17943;SDS011;9097;47.028;15.444;2023-05-19T03:31:44;8.33;;;2.57;;
17943;SDS011;9097;47.028;15.444;2023-05-19T03:34:48;4.67;;;2.90;;
17943;SDS011;9097;47.028;15.444;2023-05-19T03:37:50;8.13;;;3.47;;
17943;SDS011;9097;47.028;15.444;2023-05-19T03:40:52;3.20;;;1.90;;
17943;SDS011;9097;47.028;15.444;2023-05-19T03:43:54;3.57;;;2.60;;
17943;SDS011;9097;47.028;15.444;2023-05-19T03:46:57;27.20;;;8.10;;
17943;SDS011;9097;47.028;15.444;2023-05-19T03:50:00;13.13;;;4.57;;
17943;SDS011;9097;47.028;15.444;2023-05-19T03:53:04;5.50;;;2.63;;
17943;SDS011;9097;47.028;15.444;2023-05-19T03:56:06;4.60;;;2.43;;
17943;SDS011;9097;47.028;15.444;2023-05-19T03:59:10;2.90;;;2.00;;
17943;SDS011;9097;47.028;15.444;2023-05-19T04:02:13;6.03;;;3.43;;
17943;SDS011;9097;47.028;15.444;2023-05-19T04:05:18;5.00;;;2.70;;
17943;SDS011;9097;47.028;15.444;2023-05-19T04:08:20;4.73;;;2.80;;
17943;SDS011;9097;47.028;15.444;2023-05-19T04:11:23;4.80;;;2.73;;
17943;SDS011;9097;47.028;15.444;2023-05-19T04:14:25;4.63;;;2.90;;
17943;SDS011;9097;47.028;15.444;2023-05-19T04:17:27;7.73;;;2.43;;
17943;SDS011;9097;47.028;15.444;2023-05-19T04:20:31;4.30;;;2.43;;
17943;SDS011;9097;47.028;15.444;2023-05-19T04:23:34;2.50;;;2.07;;
17943;SDS011;9097;47.028;15.444;2023-05-19T04:26:36;4.67;;;3.20;;
17943;SDS011;9097;47.028;15.444;2023-05-19T04:29:41;4.50;;;2.57;;
17943;SDS011;9097;47.028;15.444;2023-05-19T04:32:45;3.73;;;2.67;;
17943;SDS011;9097;47.028;15.444;2023-05-19T04:35:50;4.60;;;2.20;;
17943;SDS011;9097;47.028;15.444;2023-05-19T04:38:52;2.70;;;2.07;;
17943;SDS011;9097;47.028;15.444;2023-05-19T04:42:01;5.50;;;2.03;;
17943;SDS011;9097;47.028;15.444;2023-05-19T04:45:04;4.40;;;2.27;;
17943;SDS011;9097;47.028;15.444;2023-05-19T04:48:08;4.53;;;2.57;;
17943;SDS011;9097;47.028;15.444;2023-05-19T04:51:12;2.70;;;1.60;;
17943;SDS011;9097;47.028;15.444;2023-05-19T04:54:15;3.23;;;2.10;;
17943;SDS011;9097;47.028;15.444;2023-05-19T04:57:17;5.50;;;2.60;;
17943;SDS011;9097;47.028;15.444;2023-05-19T05:00:20;2.63;;;2.07;;
17943;SDS011;9097;47.028;15.444;2023-05-19T05:03:22;3.97;;;2.80;;
17943;SDS011;9097;47.028;15.444;2023-05-19T05:06:26;6.67;;;2.40;;
17943;SDS011;9097;47.028;15.444;2023-05-19T05:09:30;5.70;;;2.40;;
17943;SDS011;9097;47.028;15.444;2023-05-19T05:12:33;5.60;;;2.40;;
17943;SDS011;9097;47.028;15.444;2023-05-19T05:15:36;4.33;;;2.63;;
17943;SDS011;9097;47.028;15.444;2023-05-19T05:18:39;4.80;;;3.00;;
17943;SDS011;9097;47.028;15.444;2023-05-19T05:21:43;4.53;;;2.80;;
17943;SDS011;9097;47.028;15.444;2023-05-19T05:24:46;4.70;;;2.37;;
17943;SDS011;9097;47.028;15.444;2023-05-19T05:27:50;5.53;;;2.43;;
17943;SDS011;9097;47.028;15.444;2023-05-19T05:30:52;3.63;;;2.20;;
17943;SDS011;9097;47.028;15.444;2023-05-19T05:33:56;3.90;;;2.13;;
17943;SDS011;9097;47.028;15.444;2023-05-19T05:37:00;3.37;;;1.90;;
17943;SDS011;9097;47.028;15.444;2023-05-19T05:40:03;3.13;;;2.07;;
17943;SDS011;9097;47.028;15.444;2023-05-19T05:43:06;2.50;;;2.10;;
17943;SDS011;9097;47.028;15.444;2023-05-19T05:46:08;4.10;;;3.03;;
17943;SDS011;9097;47.028;15.444;2023-05-19T05:49:11;7.43;;;2.17;;
17943;SDS011;9097;47.028;15.444;2023-05-19T05:52:15;4.17;;;2.23;;
17943;SDS011;9097;47.028;15.444;2023-05-19T05:55:21;6.23;;;2.60;;
17943;SDS011;9097;47.028;15.444;2023-05-19T05:58:24;10.43;;;2.87;;
17943;SDS011;9097;47.028;15.444;2023-05-19T06:01:27;7.60;;;2.23;;
17943;SDS011;9097;47.028;15.444;2023-05-19T06:04:30;3.37;;;2.47;;
17943;SDS011;9097;47.028;15.444;2023-05-19T06:07:34;3.03;;;2.37;;
17943;SDS011;9097;47.028;15.444;2023-05-19T06:10:37;2.30;;;2.10;;
17943;SDS011;9097;47.028;15.444;2023-05-19T06:13:40;10.90;;;3.67;;
17943;SDS011;9097;47.028;15.444;2023-05-19T06:16:43;3.90;;;2.07;;
17943;SDS011;9097;47.028;15.444;2023-05-19T06:19:47;4.63;;;2.33;;
17943;SDS011;9097;47.028;15.444;2023-05-19T06:22:51;3.63;;;2.10;;
17943;SDS011;9097;47.028;15.444;2023-05-19T06:25:53;4.27;;;2.13;;
17943;SDS011;9097;47.028;15.444;2023-05-19T06:28:56;4.43;;;3.10;;
17943;SDS011;9097;47.028;15.444;2023-05-19T06:31:59;5.77;;;2.13;;
17943;SDS011;9097;47.028;15.444;2023-05-19T06:35:02;3.07;;;2.30;;
17943;SDS011;9097;47.028;15.444;2023-05-19T06:38:06;2.87;;;2.40;;
17943;SDS011;9097;47.028;15.444;2023-05-19T06:41:08;3.50;;;2.20;;
17943;SDS011;9097;47.028;15.444;2023-05-19T06:44:11;4.33;;;2.23;;
17943;SDS011;9097;47.028;15.444;2023-05-19T06:47:13;6.03;;;2.63;;
17943;SDS011;9097;47.028;15.444;2023-05-19T06:50:16;6.10;;;2.47;;
17943;SDS011;9097;47.028;15.444;2023-05-19T06:53:19;3.53;;;1.67;;
17943;SDS011;9097;47.028;15.444;2023-05-19T06:56:22;3.77;;;2.17;;
17943;SDS011;9097;47.028;15.444;2023-05-19T06:59:24;2.50;;;2.07;;
17943;SDS011;9097;47.028;15.444;2023-05-19T07:02:26;2.40;;;1.97;;
17943;SDS011;9097;47.028;15.444;2023-05-19T07:05:28;3.87;;;2.23;;
17943;SDS011;9097;47.028;15.444;2023-05-19T07:08:32;3.73;;;2.30;;
17943;SDS011;9097;47.028;15.444;2023-05-19T07:11:36;4.47;;;3.13;;
17943;SDS011;9097;47.028;15.444;2023-05-19T07:14:38;4.53;;;2.43;;
17943;SDS011;9097;47.028;15.444;2023-05-19T07:17:40;4.23;;;2.83;;
17943;SDS011;9097;47.028;15.444;2023-05-19T07:20:44;3.87;;;2.83;;
17943;SDS011;9097;47.028;15.444;2023-05-19T07:23:47;11.17;;;2.80;;
17943;SDS011;9097;47.028;15.444;2023-05-19T07:26:50;5.67;;;2.67;;
17943;SDS011;9097;47.028;15.444;2023-05-19T07:29:52;6.23;;;2.67;;
17943;SDS011;9097;47.028;15.444;2023-05-19T07:32:55;3.60;;;2.43;;
17943;SDS011;9097;47.028;15.444;2023-05-19T07:35:57;2.47;;;2.07;;
17943;SDS011;9097;47.028;15.444;2023-05-19T07:39:01;3.70;;;2.10;;
17943;SDS011;9097;47.028;15.444;2023-05-19T07:42:04;3.17;;;2.17;;
17943;SDS011;9097;47.028;15.444;2023-05-19T07:45:07;4.67;;;2.13;;
17943;SDS011;9097;47.028;15.444;2023-05-19T07:48:11;2.10;;;1.90;;
17943;SDS011;9097;47.028;15.444;2023-05-19T07:51:14;3.40;;;2.57;;
17943;SDS011;9097;47.028;15.444;2023-05-19T07:54:17;3.13;;;2.13;;
17943;SDS011;9097;47.028;15.444;2023-05-19T07:57:21;3.90;;;2.73;;
17943;SDS011;9097;47.028;15.444;2023-05-19T08:00:23;4.83;;;2.67;;
17943;SDS011;9097;47.028;15.444;2023-05-19T08:03:25;3.47;;;1.77;;
17943;SDS011;9097;47.028;15.444;2023-05-19T08:06:28;5.57;;;2.77;;
17943;SDS011;9097;47.028;15.444;2023-05-19T08:09:32;8.13;;;3.83;;
17943;SDS011;9097;47.028;15.444;2023-05-19T08:12:34;2.93;;;2.03;;
17943;SDS011;9097;47.028;15.444;2023-05-19T08:15:37;1.80;;;1.57;;
17943;SDS011;9097;47.028;15.444;2023-05-19T08:18:40;3.50;;;1.97;;
17943;SDS011;9097;47.028;15.444;2023-05-19T08:21:43;4.33;;;2.40;;
17943;SDS011;9097;47.028;15.444;2023-05-19T08:24:46;5.40;;;2.63;;
17943;SDS011;9097;47.028;15.444;2023-05-19T08:27:50;2.80;;;2.17;;
17943;SDS011;9097;47.028;15.444;2023-05-19T08:30:53;5.93;;;3.10;;
17943;SDS011;9097;47.028;15.444;2023-05-19T08:33:55;3.67;;;2.63;;
17943;SDS011;9097;47.028;15.444;2023-05-19T08:36:57;3.83;;;2.90;;
17943;SDS011;9097;47.028;15.444;2023-05-19T08:40:01;4.03;;;2.03;;
17943;SDS011;9097;47.028;15.444;2023-05-19T08:43:05;7.97;;;3.43;;
17943;SDS011;9097;47.028;15.444;2023-05-19T08:46:07;2.30;;;1.93;;
17943;SDS011;9097;47.028;15.444;2023-05-19T08:49:16;8.70;;;3.33;;
17943;SDS011;9097;47.028;15.444;2023-05-19T08:52:24;2.23;;;1.80;;
17943;SDS011;9097;47.028;15.444;2023-05-19T08:55:35;2.73;;;2.10;;
17943;SDS011;9097;47.028;15.444;2023-05-19T08:58:42;2.50;;;2.30;;
17943;SDS011;9097;47.028;15.444;2023-05-19T09:01:47;7.20;;;3.20;;
17943;SDS011;9097;47.028;15.444;2023-05-19T09:04:50;4.07;;;2.07;;
17943;SDS011;9097;47.028;15.444;2023-05-19T09:07:53;3.90;;;2.63;;
17943;SDS011;9097;47.028;15.444;2023-05-19T09:10:57;3.00;;;2.27;;
17943;SDS011;9097;47.028;15.444;2023-05-19T09:14:00;6.77;;;2.67;;
17943;SDS011;9097;47.028;15.444;2023-05-19T09:17:02;5.03;;;2.83;;
17943;SDS011;9097;47.028;15.444;2023-05-19T09:20:06;3.10;;;2.03;;
17943;SDS011;9097;47.028;15.444;2023-05-19T09:23:13;3.40;;;2.07;;
17943;SDS011;9097;47.028;15.444;2023-05-19T09:26:17;6.43;;;3.40;;
17943;SDS011;9097;47.028;15.444;2023-05-19T09:29:22;5.43;;;2.67;;
17943;SDS011;9097;47.028;15.444;2023-05-19T09:32:25;2.55;;;1.98;;
17943;SDS011;9097;47.028;15.444;2023-05-19T09:35:28;2.83;;;1.67;;
17943;SDS011;9097;47.028;15.444;2023-05-19T09:38:31;4.47;;;2.42;;
17943;SDS011;9097;47.028;15.444;2023-05-19T09:41:35;4.53;;;2.27;;
17943;SDS011;9097;47.028;15.444;2023-05-19T09:44:37;4.32;;;2.08;;
17943;SDS011;9097;47.028;15.444;2023-05-19T09:47:40;2.67;;;1.73;;
17943;SDS011;9097;47.028;15.444;2023-05-19T09:50:43;2.75;;;2.40;;
17943;SDS011;9097;47.028;15.444;2023-05-19T09:53:45;3.00;;;2.45;;
17943;SDS011;9097;47.028;15.444;2023-05-19T09:56:57;2.37;;;1.93;;
17943;SDS011;9097;47.028;15.444;2023-05-19T10:00:00;2.08;;;1.50;;
17943;SDS011;9097;47.028;15.444;2023-05-19T10:03:10;2.95;;;1.75;;
17943;SDS011;9097;47.028;15.444;2023-05-19T10:06:13;1.63;;;1.52;;
17943;SDS011;9097;47.028;15.444;2023-05-19T10:09:16;2.88;;;1.80;;
17943;SDS011;9097;47.028;15.444;2023-05-19T10:12:20;4.88;;;2.75;;
17943;SDS011;9097;47.028;15.444;2023-05-19T10:15:23;3.67;;;2.40;;
17943;SDS011;9097;47.028;15.444;2023-05-19T10:18:26;5.75;;;1.92;;
17943;SDS011;9097;47.028;15.444;2023-05-19T10:21:28;3.47;;;2.30;;
17943;SDS011;9097;47.028;15.444;2023-05-19T10:24:32;2.78;;;1.90;;
17943;SDS011;9097;47.028;15.444;2023-05-19T10:27:36;2.40;;;1.58;;
17943;SDS011;9097;47.028;15.444;2023-05-19T10:30:40;4.40;;;2.78;;
17943;SDS011;9097;47.028;15.444;2023-05-19T10:33:50;3.08;;;1.95;;
17943;SDS011;9097;47.028;15.444;2023-05-19T10:36:58;3.67;;;2.00;;
17943;SDS011;9097;47.028;15.444;2023-05-19T10:40:05;3.47;;;2.42;;
17943;SDS011;9097;47.028;15.444;2023-05-19T10:43:14;2.95;;;2.00;;
17943;SDS011;9097;47.028;15.444;2023-05-19T10:46:21;1.90;;;1.80;;
17943;SDS011;9097;47.028;15.444;2023-05-19T10:49:24;3.88;;;2.30;;
17943;SDS011;9097;47.028;15.444;2023-05-19T10:52:27;3.00;;;1.73;;
17943;SDS011;9097;47.028;15.444;2023-05-19T10:55:43;3.03;;;1.90;;
17943;SDS011;9097;47.028;15.444;2023-05-19T10:58:52;4.25;;;1.50;;
17943;SDS011;9097;47.028;15.444;2023-05-19T11:01:54;1.50;;;1.35;;
17943;SDS011;9097;47.028;15.444;2023-05-19T11:04:57;2.08;;;1.73;;
17943;SDS011;9097;47.028;15.444;2023-05-19T11:08:08;2.40;;;1.48;;
17943;SDS011;9097;47.028;15.444;2023-05-19T11:11:13;1.30;;;1.20;;
17943;SDS011;9097;47.028;15.444;2023-05-19T11:14:17;2.38;;;1.50;;
17943;SDS011;9097;47.028;15.444;2023-05-19T11:17:20;2.63;;;1.23;;
17943;SDS011;9097;47.028;15.444;2023-05-19T11:20:27;1.60;;;1.33;;
17943;SDS011;9097;47.028;15.444;2023-05-19T11:23:34;1.02;;;1.00;;
17943;SDS011;9097;47.028;15.444;2023-05-19T11:26:40;1.45;;;1.10;;
17943;SDS011;9097;47.028;15.444;2023-05-19T11:29:44;2.97;;;1.77;;
17943;SDS011;9097;47.028;15.444;2023-05-19T11:32:48;3.42;;;1.33;;
17943;SDS011;9097;47.028;15.444;2023-05-19T11:35:51;1.05;;;0.95;;
17943;SDS011;9097;47.028;15.444;2023-05-19T11:41:59;2.90;;;1.10;;
17943;SDS011;9097;47.028;15.444;2023-05-19T11:45:04;1.60;;;1.17;;
17943;SDS011;9097;47.028;15.444;2023-05-19T11:48:09;2.08;;;1.08;;
17943;SDS011;9097;47.028;15.444;2023-05-19T11:51:12;1.15;;;1.05;;
17943;SDS011;9097;47.028;15.444;2023-05-19T11:54:15;1.52;;;1.40;;
17943;SDS011;9097;47.028;15.444;2023-05-19T11:57:19;2.15;;;1.48;;
17943;SDS011;9097;47.028;15.444;2023-05-19T12:00:24;1.20;;;0.98;;
17943;SDS011;9097;47.028;15.444;2023-05-19T12:03:26;3.15;;;1.20;;
17943;SDS011;9097;47.028;15.444;2023-05-19T12:06:32;2.35;;;1.48;;
17943;SDS011;9097;47.028;15.444;2023-05-19T12:09:36;2.17;;;1.35;;
17943;SDS011;9097;47.028;15.444;2023-05-19T12:12:38;1.88;;;1.00;;
17943;SDS011;9097;47.028;15.444;2023-05-19T12:15:42;1.88;;;1.25;;
17943;SDS011;9097;47.028;15.444;2023-05-19T12:18:45;1.25;;;1.05;;
17943;SDS011;9097;47.028;15.444;2023-05-19T12:21:47;1.30;;;1.20;;
17943;SDS011;9097;47.028;15.444;2023-05-19T12:24:50;1.85;;;1.20;;
17943;SDS011;9097;47.028;15.444;2023-05-19T12:27:56;2.83;;;1.00;;
17943;SDS011;9097;47.028;15.444;2023-05-19T12:31:00;2.35;;;1.70;;
17943;SDS011;9097;47.028;15.444;2023-05-19T12:34:03;4.72;;;2.42;;
17943;SDS011;9097;47.028;15.444;2023-05-19T12:37:06;1.98;;;1.42;;
17943;SDS011;9097;47.028;15.444;2023-05-19T12:40:08;2.35;;;1.35;;
17943;SDS011;9097;47.028;15.444;2023-05-19T12:43:17;1.10;;;0.90;;
17943;SDS011;9097;47.028;15.444;2023-05-19T12:46:21;1.90;;;1.08;;
17943;SDS011;9097;47.028;15.444;2023-05-19T12:49:24;2.33;;;1.08;;
17943;SDS011;9097;47.028;15.444;2023-05-19T12:52:27;1.33;;;1.15;;
17943;SDS011;9097;47.028;15.444;2023-05-19T12:55:29;1.75;;;1.05;;
17943;SDS011;9097;47.028;15.444;2023-05-19T12:58:32;1.20;;;1.10;;
17943;SDS011;9097;47.028;15.444;2023-05-19T13:01:36;1.33;;;1.17;;
17943;SDS011;9097;47.028;15.444;2023-05-19T13:04:39;2.03;;;1.55;;
17943;SDS011;9097;47.028;15.444;2023-05-19T13:07:44;2.00;;;1.58;;
17943;SDS011;9097;47.028;15.444;2023-05-19T13:10:54;3.90;;;2.08;;
17943;SDS011;9097;47.028;15.444;2023-05-19T13:13:56;1.50;;;1.10;;
17943;SDS011;9097;47.028;15.444;2023-05-19T13:17:00;1.65;;;1.08;;
17943;SDS011;9097;47.028;15.444;2023-05-19T13:20:03;1.52;;;1.42;;
17943;SDS011;9097;47.028;15.444;2023-05-19T13:23:08;4.35;;;1.30;;
17943;SDS011;9097;47.028;15.444;2023-05-19T13:26:10;1.73;;;1.10;;
17943;SDS011;9097;47.028;15.444;2023-05-19T13:29:13;1.60;;;1.30;;
17943;SDS011;9097;47.028;15.444;2023-05-19T13:32:17;3.78;;;1.45;;
17943;SDS011;9097;47.028;15.444;2023-05-19T13:35:20;1.67;;;0.95;;
17943;SDS011;9097;47.028;15.444;2023-05-19T13:38:23;1.77;;;1.20;;
17943;SDS011;9097;47.028;15.444;2023-05-19T13:41:25;2.03;;;1.42;;
17943;SDS011;9097;47.028;15.444;2023-05-19T13:44:29;3.83;;;1.38;;
17943;SDS011;9097;47.028;15.444;2023-05-19T13:47:32;2.80;;;1.30;;
17943;SDS011;9097;47.028;15.444;2023-05-19T13:50:35;2.28;;;1.45;;
17943;SDS011;9097;47.028;15.444;2023-05-19T13:53:38;5.63;;;1.38;;
17943;SDS011;9097;47.028;15.444;2023-05-19T13:56:40;1.55;;;1.05;;
17943;SDS011;9097;47.028;15.444;2023-05-19T13:59:45;1.02;;;0.65;;
17943;SDS011;9097;47.028;15.444;2023-05-19T14:02:49;3.83;;;2.10;;
17943;SDS011;9097;47.028;15.444;2023-05-19T14:05:51;1.90;;;1.00;;
17943;SDS011;9097;47.028;15.444;2023-05-19T14:08:54;3.17;;;1.40;;
17943;SDS011;9097;47.028;15.444;2023-05-19T14:11:57;1.77;;;1.10;;
17943;SDS011;9097;47.028;15.444;2023-05-19T14:15:00;2.30;;;1.38;;
17943;SDS011;9097;47.028;15.444;2023-05-19T14:18:04;2.20;;;1.55;;
17943;SDS011;9097;47.028;15.444;2023-05-19T14:21:06;1.33;;;1.23;;
17943;SDS011;9097;47.028;15.444;2023-05-19T14:24:09;3.17;;;1.08;;
17943;SDS011;9097;47.028;15.444;2023-05-19T14:27:11;1.33;;;1.17;;
17943;SDS011;9097;47.028;15.444;2023-05-19T14:30:14;2.25;;;0.95;;
17943;SDS011;9097;47.028;15.444;2023-05-19T14:33:18;1.58;;;1.10;;
17943;SDS011;9097;47.028;15.444;2023-05-19T14:36:20;1.40;;;1.27;;
17943;SDS011;9097;47.028;15.444;2023-05-19T14:39:23;3.58;;;1.65;;
17943;SDS011;9097;47.028;15.444;2023-05-19T14:42:25;1.75;;;1.20;;
17943;SDS011;9097;47.028;15.444;2023-05-19T14:45:28;1.42;;;1.02;;
17943;SDS011;9097;47.028;15.444;2023-05-19T14:48:32;1.33;;;1.23;;
17943;SDS011;9097;47.028;15.444;2023-05-19T14:51:34;1.92;;;0.80;;
17943;SDS011;9097;47.028;15.444;2023-05-19T14:54:37;1.63;;;1.52;;
17943;SDS011;9097;47.028;15.444;2023-05-19T14:57:39;1.27;;;0.75;;
17943;SDS011;9097;47.028;15.444;2023-05-19T15:00:42;1.00;;;0.90;;
17943;SDS011;9097;47.028;15.444;2023-05-19T15:03:47;1.85;;;1.17;;
17943;SDS011;9097;47.028;15.444;2023-05-19T15:06:49;1.70;;;1.38;;
17943;SDS011;9097;47.028;15.444;2023-05-19T15:09:52;1.27;;;0.93;;
17943;SDS011;9097;47.028;15.444;2023-05-19T15:12:55;2.67;;;1.80;;
17943;SDS011;9097;47.028;15.444;2023-05-19T15:15:59;1.95;;;1.33;;
17943;SDS011;9097;47.028;15.444;2023-05-19T15:19:03;1.83;;;1.02;;
17943;SDS011;9097;47.028;15.444;2023-05-19T15:22:06;3.08;;;1.05;;
17943;SDS011;9097;47.028;15.444;2023-05-19T15:25:09;1.17;;;0.77;;
17943;SDS011;9097;47.028;15.444;2023-05-19T15:28:11;1.25;;;1.15;;
17943;SDS011;9097;47.028;15.444;2023-05-19T15:31:16;2.30;;;1.63;;
17943;SDS011;9097;47.028;15.444;2023-05-19T15:34:20;1.17;;;1.08;;
17943;SDS011;9097;47.028;15.444;2023-05-19T15:37:22;2.22;;;1.33;;
17943;SDS011;9097;47.028;15.444;2023-05-19T15:40:25;1.73;;;1.13;;
17943;SDS011;9097;47.028;15.444;2023-05-19T15:43:27;2.60;;;1.67;;
17943;SDS011;9097;47.028;15.444;2023-05-19T15:46:30;2.55;;;1.13;;
17943;SDS011;9097;47.028;15.444;2023-05-19T15:49:34;2.13;;;1.27;;
17943;SDS011;9097;47.028;15.444;2023-05-19T15:52:36;1.83;;;1.25;;
17943;SDS011;9097;47.028;15.444;2023-05-19T15:55:39;2.35;;;1.38;;
17943;SDS011;9097;47.028;15.444;2023-05-19T15:58:41;1.60;;;1.00;;
17943;SDS011;9097;47.028;15.444;2023-05-19T16:01:44;1.45;;;1.13;;
17943;SDS011;9097;47.028;15.444;2023-05-19T16:04:48;0.88;;;0.77;;
17943;SDS011;9097;47.028;15.444;2023-05-19T16:07:51;1.25;;;1.00;;
17943;SDS011;9097;47.028;15.444;2023-05-19T16:10:53;3.03;;;1.42;;
17943;SDS011;9097;47.028;15.444;2023-05-19T16:13:56;3.58;;;1.30;;
17943;SDS011;9097;47.028;15.444;2023-05-19T16:16:58;2.25;;;1.08;;
17943;SDS011;9097;47.028;15.444;2023-05-19T16:20:03;1.23;;;0.82;;
17943;SDS011;9097;47.028;15.444;2023-05-19T16:23:05;2.72;;;0.80;;
17943;SDS011;9097;47.028;15.444;2023-05-19T16:26:10;2.13;;;1.23;;
17943;SDS011;9097;47.028;15.444;2023-05-19T16:29:12;1.50;;;0.90;;
17943;SDS011;9097;47.028;15.444;2023-05-19T16:32:15;2.97;;;1.30;;
17943;SDS011;9097;47.028;15.444;2023-05-19T16:35:19;1.52;;;0.90;;
17943;SDS011;9097;47.028;15.444;2023-05-19T16:38:21;1.50;;;1.20;;
17943;SDS011;9097;47.028;15.444;2023-05-19T16:41:24;1.48;;;1.00;;
17943;SDS011;9097;47.028;15.444;2023-05-19T16:44:27;1.20;;;1.10;;
17943;SDS011;9097;47.028;15.444;2023-05-19T16:47:29;0.70;;;0.70;;
17943;SDS011;9097;47.028;15.444;2023-05-19T16:50:33;0.80;;;0.80;;
17943;SDS011;9097;47.028;15.444;2023-05-19T16:53:36;1.25;;;1.00;;
17943;SDS011;9097;47.028;15.444;2023-05-19T16:56:39;0.85;;;0.73;;
17943;SDS011;9097;47.028;15.444;2023-05-19T16:59:42;1.80;;;1.05;;
17943;SDS011;9097;47.028;15.444;2023-05-19T17:02:44;1.30;;;0.90;;
17943;SDS011;9097;47.028;15.444;2023-05-19T17:05:48;1.40;;;1.00;;
17943;SDS011;9097;47.028;15.444;2023-05-19T17:08:51;0.90;;;0.90;;
17943;SDS011;9097;47.028;15.444;2023-05-19T17:11:54;1.75;;;1.27;;
17943;SDS011;9097;47.028;15.444;2023-05-19T17:14:56;1.23;;;1.02;;
17943;SDS011;9097;47.028;15.444;2023-05-19T17:17:59;0.90;;;0.85;;
17943;SDS011;9097;47.028;15.444;2023-05-19T17:21:03;1.25;;;1.15;;
17943;SDS011;9097;47.028;15.444;2023-05-19T17:24:05;2.20;;;1.23;;
17943;SDS011;9097;47.028;15.444;2023-05-19T17:27:08;1.60;;;1.23;;
17943;SDS011;9097;47.028;15.444;2023-05-19T17:30:11;1.00;;;0.90;;
17943;SDS011;9097;47.028;15.444;2023-05-19T17:33:14;1.08;;;0.82;;
17943;SDS011;9097;47.028;15.444;2023-05-19T17:36:18;1.70;;;1.05;;
17943;SDS011;9097;47.028;15.444;2023-05-19T17:39:21;1.77;;;1.20;;
17943;SDS011;9097;47.028;15.444;2023-05-19T17:42:23;1.05;;;0.90;;
17943;SDS011;9097;47.028;15.444;2023-05-19T17:45:26;0.70;;;0.70;;
17943;SDS011;9097;47.028;15.444;2023-05-19T17:48:29;3.10;;;0.93;;
17943;SDS011;9097;47.028;15.444;2023-05-19T17:51:34;0.77;;;0.77;;
17943;SDS011;9097;47.028;15.444;2023-05-19T17:54:39;0.70;;;0.70;;
17943;SDS011;9097;47.028;15.444;2023-05-19T17:57:42;1.85;;;1.17;;
17943;SDS011;9097;47.028;15.444;2023-05-19T18:00:46;1.27;;;1.00;;
17943;SDS011;9097;47.028;15.444;2023-05-19T18:03:50;1.80;;;1.17;;
17943;SDS011;9097;47.028;15.444;2023-05-19T18:06:57;2.47;;;1.15;;
17943;SDS011;9097;47.028;15.444;2023-05-19T18:10:00;0.80;;;0.70;;
17943;SDS011;9097;47.028;15.444;2023-05-19T18:13:03;0.85;;;0.60;;
17943;SDS011;9097;47.028;15.444;2023-05-19T18:16:05;1.30;;;1.02;;
17943;SDS011;9097;47.028;15.444;2023-05-19T18:19:08;1.38;;;1.08;;
17943;SDS011;9097;47.028;15.444;2023-05-19T18:22:12;1.10;;;1.00;;
17943;SDS011;9097;47.028;15.444;2023-05-19T18:25:14;1.02;;;0.85;;
17943;SDS011;9097;47.028;15.444;2023-05-19T18:28:17;1.10;;;1.00;;
17943;SDS011;9097;47.028;15.444;2023-05-19T18:31:20;2.45;;;1.20;;
17943;SDS011;9097;47.028;15.444;2023-05-19T18:34:24;2.45;;;1.42;;